Time;durP1;ratioP1;P1;durP2;ratioP2;P2;SDS_P1;SDS_P2;PMS_P1;PMS_P2;Temp;Humidity;BMP_temperature;BMP_pressure;BME280_temperature;BME280_humidity;BME280_pressure;Samples;Min_cycle;Max_cycle;Signal;HPM_P1;HPM_P2
2024/01/01 00:01:41;;;;;;;718.90;552.88;;;13.90;99.90;;;;;;5047576;28;20060;-70
2024/01/01 00:04:46;;;;;;;769.72;595.75;;;;;;;;;;5047801;28;20503;-68
2024/01/01 00:07:51;;;;;;;871.50;647.85;;;;;;;;;;5047767;28;20055;-69
2024/01/01 00:10:55;;;;;;;894.67;659.88;;;;;;;;;;5047550;28;20044;-68
2024/01/01 00:14:00;;;;;;;808.80;619.95;;;;;;;;;;5048857;28;20048;-68
2024/01/01 00:17:04;;;;;;;830.92;627.13;;;;;;;;;;5098674;27;20384;-68
2024/01/01 00:20:10;;;;;;;829.08;629.00;;;;;;;;;;5050995;28;20059;-68
2024/01/01 00:23:14;;;;;;;812.70;621.17;;;;;;;;;;5050789;28;20052;-68
2024/01/01 00:26:19;;;;;;;797.28;611.78;;;;;;;;;;5098966;27;20110;-69
2024/01/01 00:29:27;;;;;;;768.28;590.05;;;;;;;;;;5098649;27;20044;-68
2024/01/01 00:32:31;;;;;;;754.20;579.85;;;;;;;;;;5050756;28;20048;-68
2024/01/01 00:35:36;;;;;;;743.47;576.90;;;;;;;;;;5098812;27;20048;-68
2024/01/01 00:38:40;;;;;;;553.78;417.50;;;;;;;;;;5098911;27;20044;-69
2024/01/01 00:41:50;;;;;;;484.17;352.40;;;15.30;99.90;;;;;;5050525;28;20048;-68
2024/01/01 00:44:55;;;;;;;621.95;475.33;;;;;;;;;;5050908;28;20052;-69
2024/01/01 00:47:59;;;;;;;602.78;468.25;;;;;;;;;;5098694;27;20078;-68
2024/01/01 00:51:03;;;;;;;665.25;514.10;;;;;;;;;;5098763;27;20385;-69
2024/01/01 00:54:07;;;;;;;591.83;447.70;;;;;;;;;;5050926;28;20656;-70
2024/01/01 00:57:11;;;;;;;603.60;455.95;;;;;;;;;;5050925;28;20064;-69
2024/01/01 01:00:16;;;;;;;625.22;479.95;;;;;;;;;;5050703;28;20067;-68
2024/01/01 01:03:20;;;;;;;518.50;374.15;;;;;;;;;;5086229;28;20076;-68
2024/01/01 01:06:24;;;;;;;105.85;67.07;;;;;;;;;;5098339;27;20515;-68
2024/01/01 01:09:30;;;;;;;56.85;37.10;;;;;;;;;;5050718;28;20067;-68
2024/01/01 01:12:34;;;;;;;52.83;35.17;;;;;;;;;;5051032;28;20048;-68
2024/01/01 01:15:39;;;;;;;57.03;33.03;;;;;;;;;;5050522;28;20497;-69
2024/01/01 01:18:43;;;;;;;67.20;40.25;;;;;;;;;;5097340;28;20048;-68
2024/01/01 01:21:48;;;;;;;33.28;22.77;;;;;;;;;;5048964;28;20055;-69
2024/01/01 01:24:52;;;;;;;38.95;27.38;;;;;;;;;;5049082;28;20052;-68
2024/01/01 01:27:57;;;;;;;38.72;25.73;;;;;;;;;;5096449;28;20511;-69
2024/01/01 01:31:04;;;;;;;36.47;25.42;;;15.50;99.90;;;;;;5049291;28;20052;-69
2024/01/01 01:34:08;;;;;;;37.53;25.92;;;;;;;;;;5049244;28;20495;-69
2024/01/01 01:37:13;;;;;;;34.75;23.00;;;;;;;;;;5049087;28;20442;-69
2024/01/01 01:40:17;;;;;;;28.63;21.30;;;;;;;;;;5050271;28;20060;-69
2024/01/01 01:43:22;;;;;;;28.92;19.80;;;;;;;;;;5049808;28;20408;-68
2024/01/01 01:46:28;;;;;;;28.10;18.63;;;13.00;99.90;;;;;;5049047;28;20356;-69
2024/01/01 01:49:32;;;;;;;21.88;16.70;;;;;;;;;;5048731;28;20036;-69
2024/01/01 01:52:39;;;;;;;24.08;16.60;;;11.90;99.90;;;;;;5048780;28;20048;-69
2024/01/01 01:55:45;;;;;;;25.70;16.98;;;14.50;99.90;;;;;;5048458;28;20119;-68
2024/01/01 01:58:49;;;;;;;22.33;14.25;;;;;;;;;;5048519;28;20048;-68
2024/01/01 02:01:54;;;;;;;23.98;14.48;;;;;;;;;;5095593;28;20044;-68
2024/01/01 02:04:58;;;;;;;17.98;13.88;;;;;;;;;;5048450;28;20044;-68
2024/01/01 02:08:02;;;;;;;24.13;14.93;;;;;;;;;;5048463;28;20060;-68
2024/01/01 02:11:07;;;;;;;24.63;14.07;;;;;;;;;;5048449;28;20048;-68
2024/01/01 02:14:14;;;;;;;21.88;13.63;;;14.80;99.90;;;;;;5095890;28;20054;-68
2024/01/01 02:17:18;;;;;;;15.93;11.93;;;;;;;;;;5053960;27;1200346;-68
2024/01/01 02:20:22;;;;;;;31.33;26.50;;;;;;;;;;5085307;28;20523;-68
2024/01/01 02:23:26;;;;;;;21.05;17.60;;;;;;;;;;5048899;28;20421;-68
2024/01/01 02:26:31;;;;;;;26.98;18.48;;;;;;;;;;5097118;27;20036;-68
2024/01/01 02:29:35;;;;;;;24.60;15.45;;;;;;;;;;5096775;27;20048;-68
2024/01/01 02:32:40;;;;;;;17.50;12.48;;;;;;;;;;5048880;28;20447;-68
2024/01/01 02:35:44;;;;;;;16.75;11.80;;;;;;;;;;5048510;28;20040;-68
2024/01/01 02:38:48;;;;;;;17.63;12.15;;;14.80;99.90;;;;;;5049072;28;20040;-68
2024/01/01 02:41:53;;;;;;;24.13;10.88;;;;;;;;;;5096395;27;20115;-68
2024/01/01 02:44:57;;;;;;;20.80;11.88;;;;;;;;;;5048959;28;20052;-69
2024/01/01 02:48:01;;;;;;;19.45;12.55;;;;;;;;;;5096286;27;20043;-68
2024/01/01 02:51:05;;;;;;;23.40;12.52;;;;;;;;;;5048578;28;20059;-69
2024/01/01 02:54:10;;;;;;;22.45;13.63;;;18.20;99.90;;;;;;5049007;28;20048;-68
2024/01/01 02:57:14;;;;;;;23.63;13.68;;;;;;;;;;5096511;27;20534;-68
2024/01/01 03:00:18;;;;;;;24.10;13.32;;;;;;;;;;5048481;28;20044;-69
2024/01/01 03:03:23;;;;;;;20.20;11.48;;;;;;;;;;5096028;27;20449;-68
2024/01/01 03:06:27;;;;;;;23.20;12.05;;;;;;;;;;5048266;28;20044;-68
2024/01/01 03:09:31;;;;;;;16.42;10.73;;;;;;;;;;5048672;28;20051;-69
2024/01/01 03:12:36;;;;;;;14.95;10.15;;;;;;;;;;5048298;28;20040;-68
2024/01/01 03:15:40;;;;;;;18.35;10.38;;;;;;;;;;5048136;28;20400;-69
2024/01/01 03:18:44;;;;;;;17.60;10.80;;;;;;;;;;5095749;27;20507;-68
2024/01/01 03:21:49;;;;;;;18.83;10.32;;;;;;;;;;5095668;27;20504;-68
2024/01/01 03:24:53;;;;;;;19.55;12.38;;;;;;;;;;5048289;28;20048;-68
2024/01/01 03:27:58;;;;;;;18.98;12.55;;;;;;;;;;5048410;28;20040;-68
2024/01/01 03:31:02;;;;;;;27.10;19.33;;;;;;;;;;5095672;27;20052;-68
2024/01/01 03:34:07;;;;;;;19.80;13.48;;;;;;;;;;5047814;28;20040;-68
2024/01/01 03:37:12;;;;;;;19.77;12.30;;;;;;;;;;5048257;28;20048;-68
2024/01/01 03:40:16;;;;;;;20.05;12.38;;;;;;;;;;5048005;28;20064;-69
2024/01/01 03:43:20;;;;;;;20.00;13.10;;;;;;;;;;5095502;27;20048;-69
2024/01/01 03:46:25;;;;;;;18.20;12.30;;;;;;;;;;5095480;27;20044;-69
2024/01/01 03:49:29;;;;;;;19.17;12.75;;;;;;;;;;5047908;28;20059;-69
2024/01/01 03:52:33;;;;;;;27.52;14.20;;;;;;;;;;5094823;27;20044;-69
2024/01/01 03:55:38;;;;;;;20.60;12.38;;;;;;;;;;5095477;27;20052;-69
2024/01/01 03:58:42;;;;;;;18.45;12.75;;;;;;;;;;5095634;27;20044;-69
2024/01/01 04:01:46;;;;;;;29.67;15.10;;;;;;;;;;5095311;28;20063;-69
2024/01/01 04:04:50;;;;;;;23.88;13.50;;;;;;;;;;5047626;28;20044;-69
2024/01/01 04:07:55;;;;;;;23.33;11.10;;;;;;;;;;5047789;28;20044;-69
2024/01/01 04:10:59;;;;;;;15.70;9.95;;;;;;;;;;5047279;28;20538;-69
2024/01/01 04:14:03;;;;;;;16.00;9.73;;;;;;;;;;5047447;28;20041;-68
2024/01/01 04:17:08;;;;;;;19.00;10.98;;;;;;;;;;5047217;28;20049;-69
2024/01/01 04:20:12;;;;;;;22.85;11.13;;;;;;;;;;5047538;28;20036;-69
2024/01/01 04:23:16;;;;;;;19.92;10.70;;;;;;;;;;5047379;28;20052;-69
2024/01/01 04:26:20;;;;;;;22.13;10.32;;;;;;;;;;5047591;28;20040;-69
2024/01/01 04:29:25;;;;;;;20.17;11.23;;;;;;;;;;5047225;28;20040;-69
2024/01/01 04:32:29;;;;;;;21.02;12.30;;;;;;;;;;5047517;28;20052;-69
2024/01/01 04:35:34;;;;;;;18.73;11.90;;;;;;;;;;5047175;28;20056;-69
2024/01/01 04:38:38;;;;;;;21.35;12.20;;;;;;;;;;5047093;28;20067;-69
2024/01/01 04:41:42;;;;;;;22.70;11.27;;;;;;;;;;5047514;28;20052;-69
2024/01/01 04:44:46;;;;;;;23.58;12.13;;;;;;;;;;5047333;28;20056;-69
2024/01/01 04:47:51;;;;;;;17.10;12.02;;;;;;;;;;5047387;28;20048;-69
2024/01/01 04:50:55;;;;;;;16.92;10.73;;;;;;;;;;5046959;28;20040;-69
2024/01/01 04:53:59;;;;;;;18.83;11.57;;;;;;;;;;5046881;28;20047;-69
2024/01/01 04:57:03;;;;;;;20.48;11.15;;;;;;;;;;5047133;28;20499;-69
2024/01/01 05:00:08;;;;;;;21.70;12.57;;;;;;;;;;5048704;28;20389;-69
2024/01/01 05:03:13;;;;;;;23.63;12.15;;;14.70;99.90;;;;;;5050244;28;20056;-70
2024/01/01 05:06:18;;;;;;;19.27;11.23;;;;;;;;;;5050137;28;20060;-69
2024/01/01 05:09:22;;;;;;;28.85;14.20;;;;;;;;;;5050524;28;20048;-69
2024/01/01 05:12:26;;;;;;;27.30;12.68;;;;;;;;;;5049958;28;20044;-69
2024/01/01 05:15:31;;;;;;;17.10;12.52;;;;;;;;;;5050500;28;20143;-69
2024/01/01 05:18:35;;;;;;;30.17;13.90;;;;;;;;;;5050455;28;20055;-69
2024/01/01 05:21:39;;;;;;;28.17;12.18;;;;;;;;;;5049916;28;20039;-69
2024/01/01 05:24:44;;;;;;;31.52;13.98;;;;;;;;;;5050015;28;20052;-69
2024/01/01 05:27:48;;;;;;;20.95;13.20;;;;;;;;;;5050142;28;20503;-69
2024/01/01 05:30:52;;;;;;;25.50;13.63;;;;;;;;;;5049859;28;20060;-69
2024/01/01 05:33:57;;;;;;;24.33;13.75;;;;;;;;;;5051696;28;20044;-69
2024/01/01 05:37:01;;;;;;;23.20;12.77;;;;;;;;;;5101898;27;20052;-69
2024/01/01 05:40:05;;;;;;;25.67;13.43;;;;;;;;;;5052145;28;20045;-69
2024/01/01 05:43:10;;;;;;;27.52;13.82;;;;;;;;;;5050150;28;20052;-70
2024/01/01 05:46:14;;;;;;;23.10;13.75;;;;;;;;;;5054045;28;20085;-69
2024/01/01 05:49:19;;;;;;;25.10;13.57;;;;;;;;;;5096641;27;20048;-69
2024/01/01 05:52:24;;;;;;;27.08;13.65;;;;;;;;;;5049865;28;20048;-69
2024/01/01 05:55:28;;;;;;;19.50;13.52;;;;;;;;;;5053115;28;20040;-69
2024/01/01 05:58:32;;;;;;;26.17;12.93;;;;;;;;;;5049582;28;20062;-69
2024/01/01 06:01:37;;;;;;;19.10;12.30;;;;;;;;;;5049618;28;20044;-69
2024/01/01 06:04:41;;;;;;;24.27;13.43;;;;;;;;;;5049704;28;20056;-69
2024/01/01 06:07:46;;;;;;;20.17;12.70;;;;;;;;;;5049660;28;20040;-69
2024/01/01 06:10:51;;;;;;;26.40;14.13;;;;;;;;;;5048413;28;20052;-69
2024/01/01 06:13:56;;;;;;;24.65;14.00;;;;;;;;;;5049010;28;20044;-69
2024/01/01 06:17:00;;;;;;;19.58;11.55;;;;;;;;;;5048987;28;20550;-69
2024/01/01 06:20:04;;;;;;;27.55;13.57;;;;;;;;;;5049437;28;20484;-69
2024/01/01 06:23:09;;;;;;;30.65;13.60;;;;;;;;;;5049020;28;20052;-69
2024/01/01 06:26:13;;;;;;;24.65;14.10;;;;;;;;;;5096278;27;20393;-69
2024/01/01 06:29:17;;;;;;;23.60;11.98;;;;;;;;;;5048949;28;20056;-69
2024/01/01 06:32:22;;;;;;;25.48;12.57;;;;;;;;;;5048741;28;20048;-69
2024/01/01 06:35:30;;;;;;;24.05;11.48;;;;;;;;;;5096182;27;20044;-69
2024/01/01 06:38:34;;;;;;;22.17;11.52;;;;;;;;;;5096724;27;20040;-69
2024/01/01 06:41:39;;;;;;;25.58;10.50;;;;;;;;;;5049033;28;20044;-69
2024/01/01 06:44:43;;;;;;;33.90;11.15;;;14.40;99.90;;;;;;5049097;28;20539;-69
2024/01/01 06:47:48;;;;;;;30.10;12.38;;;;;;;;;;5048933;28;20392;-69
2024/01/01 06:50:51;;;;;;;18.20;10.82;;;;;;;;;;5048534;28;20039;-69
2024/01/01 06:53:56;;;;;;;26.35;12.18;;;;;;;;;;5048871;28;20044;-69
2024/01/01 06:57:02;;;;;;;30.50;12.02;;;;;;;;;;5048664;28;20047;-68
2024/01/01 07:00:07;;;;;;;20.13;10.43;;;;;;;;;;5048612;28;20048;-68
2024/01/01 07:03:11;;;;;;;20.67;11.75;;;;;;;;;;5048486;28;20060;-69
2024/01/01 07:06:15;;;;;;;25.48;10.65;;;;;;;;;;5095672;27;20392;-69
2024/01/01 07:09:19;;;;;;;26.08;11.90;;;;;;;;;;5048791;28;20055;-69
2024/01/01 07:12:27;;;;;;;25.05;10.68;;;;;;;;;;5048220;28;20043;-69
2024/01/01 07:15:31;;;;;;;26.52;10.90;;;;;;;;;;5048522;28;20131;-68
2024/01/01 07:18:35;;;;;;;27.48;12.68;;;;;;;;;;5048098;28;20408;-69
2024/01/01 07:21:39;;;;;;;25.40;11.85;;;;;;;;;;5048704;28;20044;-69
2024/01/01 07:24:44;;;;;;;28.20;11.52;;;;;;;;;;5048605;28;20404;-69
2024/01/01 07:27:48;;;;;;;26.55;10.68;;;;;;;;;;5048316;28;20040;-69
2024/01/01 07:30:52;;;;;;;26.35;11.07;;;;;;;;;;5048102;28;20048;-69
2024/01/01 07:33:57;;;;;;;29.65;11.45;;;;;;;;;;5048152;28;20044;-69
2024/01/01 07:37:03;;;;;;;20.38;10.43;;;;;;;;;;5048271;28;20543;-69
2024/01/01 07:40:07;;;;;;;25.13;14.13;;;;;;;;;;5048230;28;20396;-68
2024/01/01 07:43:11;;;;;;;24.70;10.77;;;;;;;;;;5048231;28;20052;-68
2024/01/01 07:46:15;;;;;;;23.20;10.95;;;;;;;;;;5048027;28;20044;-68
2024/01/01 07:49:19;;;;;;;29.77;10.45;;;;;;;;;;5048051;28;20040;-68
2024/01/01 07:52:24;;;;;;;20.95;10.45;;;;;;;;;;5048056;28;20040;-68
2024/01/01 07:55:31;;;;;;;20.73;9.05;;;;;;;;;;5095505;27;20044;-68
2024/01/01 07:58:35;;;;;;;24.67;10.73;;;;;;;;;;5047738;28;20029;-68
2024/01/01 08:01:42;;;;;;;32.42;10.48;;;;;;;;;;5047874;28;20470;-68
2024/01/01 08:04:46;;;;;;;26.77;11.02;;;;;;;;;;5047508;28;20048;-69
2024/01/01 08:07:51;;;;;;;22.45;8.13;;;;;;;;;;5047929;28;20044;-69
2024/01/01 08:10:55;;;;;;;32.78;9.95;;;;;;;;;;5047903;28;20041;-69
2024/01/01 08:13:59;;;;;;;21.50;9.40;;;;;;;;;;5048059;28;20044;-68
2024/01/01 08:17:04;;;;;;;26.55;8.50;;;;;;;;;;5047661;28;20037;-69
2024/01/01 08:20:08;;;;;;;19.35;8.18;;;;;;;;;;5047856;28;20041;-69
2024/01/01 08:23:13;;;;;;;17.65;7.47;;;;;;;;;;5047705;28;20043;-69
2024/01/01 08:26:18;;;;;;;17.02;7.47;;;;;;;;;;5047901;28;20048;-68
2024/01/01 08:29:22;;;;;;;16.73;7.57;;;;;;;;;;5047681;28;20036;-69
2024/01/01 08:32:26;;;;;;;20.67;8.20;;;;;;;;;;5047654;28;20546;-68
2024/01/01 08:35:31;;;;;;;10.93;6.85;;;;;;;;;;5049657;28;20029;-68
2024/01/01 08:38:35;;;;;;;19.15;7.82;;;;;;;;;;5050782;28;20377;-68
2024/01/01 08:41:45;;;;;;;18.85;7.78;;;;;;;;;;5051224;28;20037;-68
2024/01/01 08:44:50;;;;;;;19.50;7.60;;;;;;;;;;5050663;28;20049;-68
2024/01/01 08:47:54;;;;;;;20.00;8.23;;;;;;;;;;5099150;27;20040;-68
2024/01/01 08:50:59;;;;;;;22.40;8.95;;;;;;;;;;5050740;28;20051;-68
2024/01/01 08:54:07;;;;;;;16.05;7.20;;;;;;;;;;5051019;28;20040;-69
2024/01/01 08:57:11;;;;;;;12.43;7.65;;;;;;;;;;5050754;28;20069;-69
2024/01/01 09:00:17;;;;;;;20.40;7.90;;;;;;;;;;5050938;28;20025;-69
2024/01/01 09:03:21;;;;;;;21.17;8.85;;;;;;;;;;5050920;28;20041;-69
2024/01/01 09:06:26;;;;;;;22.25;7.60;;;;;;;;;;5050494;28;20389;-69
2024/01/01 09:09:30;;;;;;;14.23;6.95;;;;;;;;;;5050587;28;20040;-69
2024/01/01 09:12:34;;;;;;;13.82;7.50;;;;;;;;;;5050825;28;20060;-69
2024/01/01 09:15:39;;;;;;;24.80;8.82;;;;;;;;;;5050693;28;20041;-69
2024/01/01 09:18:43;;;;;;;16.05;7.15;;;;;;;;;;5050346;28;20041;-68
2024/01/01 09:21:48;;;;;;;13.77;7.40;;;;;;;;;;5050338;28;20457;-68
2024/01/01 09:24:52;;;;;;;16.23;9.18;;;;;;;;;;5050008;28;20061;-69
2024/01/01 09:27:56;;;;;;;22.58;9.55;;;;;;;;;;5050398;28;20038;-69
2024/01/01 09:31:00;;;;;;;17.20;7.88;;;;;;;;;;5050127;28;20037;-69
2024/01/01 09:34:06;;;;;;;28.85;8.57;;;;;;;;;;5050071;28;20029;-69
2024/01/01 09:37:10;;;;;;;26.73;9.25;;;;;;;;;;5050438;28;20033;-68
2024/01/01 09:40:17;;;;;;;15.50;7.75;;;;;;;;;;5050370;28;20033;-69
2024/01/01 09:43:21;;;;;;;23.42;8.73;;;;;;;;;;5097796;27;20036;-68
2024/01/01 09:46:28;;;;;;;19.08;7.70;;;;;;;;;;5049675;28;20037;-68
2024/01/01 09:49:32;;;;;;;15.88;7.20;;;;;;;;;;5050055;28;20040;-68
2024/01/01 09:52:37;;;;;;;20.67;7.47;;;;;;;;;;5050191;28;20394;-69
2024/01/01 09:55:41;;;;;;;21.13;6.63;;;;;;;;;;5097682;27;20044;-69
2024/01/01 09:58:45;;;;;;;24.77;6.85;;;;;;;;;;5049999;28;20088;-69
2024/01/01 10:02:04;;;;;;;17.38;6.45;;;18.80;99.90;;;;;;5049793;28;20044;-68
2024/01/01 10:05:13;;;;;;;18.88;6.05;;;;;;;;;;5085925;28;20531;-69
2024/01/01 10:08:17;;;;;;;16.95;6.05;;;;;;;;;;5049958;28;20049;-68
2024/01/01 10:11:22;;;;;;;28.63;7.72;;;;;;;;;;5050069;28;20040;-69
2024/01/01 10:14:26;;;;;;;21.75;8.07;;;;;;;;;;5050523;28;20507;-68
2024/01/01 10:17:30;;;;;;;17.05;5.85;;;;;;;;;;5049498;28;20045;-68
2024/01/01 10:20:35;;;;;;;21.02;6.45;;;;;;;;;;5049777;28;20059;-68
2024/01/01 10:23:39;;;;;;;14.55;6.03;;;;;;;;;;5049956;28;20044;-68
2024/01/01 10:26:44;;;;;;;14.73;5.53;;;;;;;;;;5049930;28;20036;-68
2024/01/01 10:29:49;;;;;;;15.15;5.78;;;;;;;;;;5049469;28;20037;-69
2024/01/01 10:32:54;;;;;;;16.33;6.65;;;;;;;;;;5049583;28;20041;-68
2024/01/01 10:36:00;;;;;;;19.73;7.57;;;;;;;;;;5049184;28;20033;-68
2024/01/01 10:39:12;;;;;;;23.02;7.30;;;20.60;99.90;;;;;;5049094;28;20043;-68
2024/01/01 10:42:16;;;;;;;;;;;;;;;;;;5097510;27;20043;-68
2024/01/01 10:45:20;;;;;;;18.58;6.90;;;;;;;;;;5049372;28;19939;-68
2024/01/01 10:48:24;;;;;;;25.52;7.05;;;;;;;;;;5049323;28;20053;-68
2024/01/01 10:51:41;;;;;;;29.23;7.32;;;16.40;99.90;;;;;;5049084;28;20029;-69
2024/01/01 10:54:54;;;;;;;28.02;9.77;;;;;;;;;;5049177;28;20040;-69
2024/01/01 10:58:12;;;;;;;24.83;9.65;;;;;;;;;;5048359;28;20191;-69
2024/01/01 11:01:18;;;;;;;29.33;11.48;;;;;;;;;;5049010;28;20053;-69
2024/01/01 11:04:23;;;;;;;35.45;14.75;;;;;;;;;;5048607;28;20072;-69
2024/01/01 11:07:51;;;;;;;29.45;11.73;;;17.20;99.90;;;;;;5049001;28;20052;-69
2024/01/01 11:10:56;;;;;;;25.52;12.65;;;;;;;;;;5048341;28;20044;-68
2024/01/01 11:14:00;;;;;;;24.38;8.60;;;;;;;;;;5048526;28;20499;-68
2024/01/01 11:17:09;;;;;;;28.80;12.07;;;;;;;;;;5048349;28;20376;-68
2024/01/01 11:20:51;;;;;;;23.73;8.77;;;17.10;99.90;;;;;;5048700;28;20052;-68
2024/01/01 11:23:59;;;;;;;23.70;10.20;;;;;;;;;;5048527;28;20048;-69
2024/01/01 11:27:22;;;;;;;30.35;10.07;;;;;;;;;;5048282;28;20106;-68
2024/01/01 11:30:27;;;;;;;20.50;8.50;;;;;;;;;;5048402;28;20389;-68
2024/01/01 11:33:32;;;;;;;17.25;7.97;;;;;;;;;;5048224;28;20052;-68
2024/01/01 11:36:43;;;;;;;24.90;9.20;;;;;;;;;;5048463;28;20047;-68
2024/01/01 11:39:57;;;;;;;32.85;8.68;;;;;;;;;;5096009;27;20033;-68
2024/01/01 11:43:06;;;;;;;20.38;8.80;;;;;;;;;;5048328;28;20440;-69
2024/01/01 11:46:10;;;;;;;24.48;8.10;;;;;;;;;;5048468;28;20037;-68
2024/01/01 11:49:15;;;;;;;21.20;9.40;;;;;;;;;;5048397;28;20408;-68
2024/01/01 11:52:19;;;;;;;16.63;8.15;;;;;;;;;;5047985;28;20044;-69
2024/01/01 11:55:26;;;;;;;21.15;8.00;;;;;;;;;;5083892;28;20373;-68
2024/01/01 11:58:30;;;;;;;26.60;11.25;;;;;;;;;;5047921;28;20033;-69
2024/01/01 12:01:35;;;;;;;50.10;17.73;;;;;;;;;;5048030;28;20035;-69
2024/01/01 12:04:40;;;;;;;33.78;18.35;;;;;;;;;;5047675;28;20056;-69
2024/01/01 12:07:44;;;;;;;24.13;10.38;;;;;;;;;;5048040;28;20040;-68
2024/01/01 12:10:59;;;;;;;28.13;12.02;;;17.30;99.90;;;;;;5051521;28;20040;-69
2024/01/01 12:14:04;;;;;;;39.83;13.68;;;;;;;;;;5051482;28;20048;-68
2024/01/01 12:17:08;;;;;;;24.27;10.93;;;;;;;;;;5051341;28;20060;-68
2024/01/01 12:20:18;;;;;;;21.60;10.15;;;17.20;99.90;;;;;;5051377;28;20341;-68
2024/01/01 12:23:25;;;;;;;24.15;10.73;;;;;;;;;;5051118;28;20036;-68
2024/01/01 12:26:31;;;;;;;26.02;12.38;;;;;;;;;;5051191;28;20044;-69
2024/01/01 12:29:35;;;;;;;28.35;12.73;;;;;;;;;;5051390;28;20055;-69
2024/01/01 12:32:40;;;;;;;27.70;12.75;;;;;;;;;;5051338;28;20044;-68
2024/01/01 12:35:44;;;;;;;26.25;10.95;;;;;;;;;;5051302;28;20044;-68
2024/01/01 12:38:48;;;;;;;34.60;12.93;;;;;;;;;;5050981;28;20361;-69
2024/01/01 12:41:53;;;;;;;30.25;11.73;;;;;;;;;;5050828;28;20044;-68
2024/01/01 12:44:57;;;;;;;20.75;10.43;;;;;;;;;;5050965;28;20052;-68
2024/01/01 12:48:03;;;;;;;19.38;8.55;;;;;;;;;;5050834;28;20123;-68
2024/01/01 12:51:07;;;;;;;32.63;9.88;;;;;;;;;;5050686;28;20037;-68
2024/01/01 12:54:11;;;;;;;19.27;8.15;;;;;;;;;;5097818;27;20499;-68
2024/01/01 12:57:16;;;;;;;26.58;12.45;;;;;;;;;;5097953;27;20404;-68
2024/01/01 13:00:21;;;;;;;18.40;8.68;;;;;;;;;;5050459;28;20040;-69
2024/01/01 13:03:25;;;;;;;15.90;7.50;;;;;;;;;;5050543;28;20412;-69
2024/01/01 13:06:30;;;;;;;15.45;8.70;;;;;;;;;;5098886;27;20045;-69
2024/01/01 13:09:34;;;;;;;15.00;6.93;;;;;;;;;;5050766;28;20037;-69
2024/01/01 13:12:38;;;;;;;16.60;9.82;;;;;;;;;;5098187;27;20046;-69
2024/01/01 13:15:42;;;;;;;27.85;16.13;;;;;;;;;;5050464;28;20037;-69
2024/01/01 13:18:47;;;;;;;20.73;12.40;;;;;;;;;;5050242;28;20519;-69
2024/01/01 13:21:51;;;;;;;20.88;12.80;;;;;;;;;;5049850;28;20123;-69
2024/01/01 13:24:55;;;;;;;27.73;15.15;;;;;;;;;;5050315;28;20060;-69
2024/01/01 13:28:00;;;;;;;18.30;9.50;;;;;;;;;;5050585;28;20044;-68
2024/01/01 13:31:04;;;;;;;16.13;9.25;;;;;;;;;;5050183;28;20036;-68
2024/01/01 13:34:08;;;;;;;16.02;9.07;;;;;;;;;;5050343;28;20037;-68
2024/01/01 13:37:13;;;;;;;11.93;7.50;;;;;;;;;;5097908;27;20373;-68
2024/01/01 13:40:17;;;;;;;17.70;8.35;;;;;;;;;;5098135;27;20033;-69
2024/01/01 13:43:21;;;;;;;12.15;8.38;;;;;;;;;;5050134;28;20041;-68
2024/01/01 13:46:26;;;;;;;14.90;9.60;;;;;;;;;;5097539;27;20037;-68
2024/01/01 13:49:30;;;;;;;16.67;9.48;;;;;;;;;;5050099;28;20037;-68
2024/01/01 13:52:36;;;;;;;13.05;8.98;;;;;;;;;;5097742;27;20037;-69
2024/01/01 13:55:43;;;;;;;15.35;8.10;;;;;;;;;;5050184;28;20044;-68
2024/01/01 13:58:49;;;;;;;15.55;8.85;;;;;;;;;;5050030;28;20037;-68
2024/01/01 14:01:53;;;;;;;14.85;9.35;;;;;;;;;;5049668;28;20538;-68
2024/01/01 14:04:58;;;;;;;17.10;9.25;;;;;;;;;;5049681;28;20052;-68
2024/01/01 14:08:02;;;;;;;15.50;8.77;;;;;;;;;;5049873;28;20030;-68
2024/01/01 14:11:07;;;;;;;15.63;10.18;;;;;;;;;;5097707;27;20037;-68
2024/01/01 14:14:12;;;;;;;16.00;9.73;;;;;;;;;;5049635;28;20036;-68
2024/01/01 14:17:16;;;;;;;20.15;12.48;;;;;;;;;;5049577;28;20052;-68
2024/01/01 14:20:20;;;;;;;20.90;11.80;;;;;;;;;;5049434;28;20044;-68
2024/01/01 14:23:25;;;;;;;22.10;12.30;;;;;;;;;;5049745;28;20048;-68
2024/01/01 14:26:29;;;;;;;24.50;13.10;;;;;;;;;;5049695;28;20076;-68
2024/01/01 14:29:34;;;;;;;24.08;12.07;;;;;;;;;;5049718;28;20048;-68
2024/01/01 14:32:38;;;;;;;21.63;10.75;;;;;;;;;;5048692;28;20044;-68
2024/01/01 14:35:42;;;;;;;21.02;11.10;;;;;;;;;;5049727;28;20056;-68
2024/01/01 14:38:48;;;;;;;22.60;10.55;;;;;;;;;;5049633;28;20048;-68
2024/01/01 14:41:52;;;;;;;32.25;15.43;;;;;;;;;;5097332;27;20502;-68
2024/01/01 14:44:57;;;;;;;16.70;9.63;;;;;;;;;;5049244;28;20056;-68
2024/01/01 14:48:02;;;;;;;23.85;11.73;;;;;;;;;;5049396;28;20037;-68
2024/01/01 14:51:06;;;;;;;22.70;12.45;;;;;;;;;;5048906;28;20074;-68
2024/01/01 14:54:11;;;;;;;19.40;9.93;;;;;;;;;;5049308;28;20044;-68
2024/01/01 14:57:15;;;;;;;20.25;13.05;;;;;;;;;;5049184;28;20064;-68
2024/01/01 15:00:20;;;;;;;17.75;10.52;;;;;;;;;;5049019;28;20393;-68
2024/01/01 15:03:27;;;;;;;20.75;10.55;;;;;;;;;;5048734;28;20510;-68
2024/01/01 15:06:31;;;;;;;21.80;11.80;;;;;;;;;;5048753;28;20052;-68
2024/01/01 15:09:37;;;;;;;19.13;11.20;;;;;;;;;;5048691;28;20071;-68
2024/01/01 15:12:41;;;;;;;20.40;11.65;;;;;;;;;;5048570;28;20040;-68
2024/01/01 15:15:45;;;;;;;22.30;12.45;;;;;;;;;;5048710;28;20141;-68
2024/01/01 15:18:49;;;;;;;25.10;13.32;;;;;;;;;;5048751;28;20767;-68
2024/01/01 15:21:54;;;;;;;29.35;14.77;;;;;;;;;;5048445;28;20044;-68
2024/01/01 15:24:59;;;;;;;26.05;14.68;;;14.20;99.90;;;;;;5048343;28;20060;-68
2024/01/01 15:28:03;;;;;;;26.83;15.75;;;;;;;;;;5048683;28;20515;-68
2024/01/01 15:31:07;;;;;;;32.58;15.95;;;;;;;;;;5048396;28;20048;-68
2024/01/01 15:34:12;;;;;;;39.58;24.88;;;;;;;;;;5048330;28;20045;-68
2024/01/01 15:37:16;;;;;;;25.50;16.60;;;;;;;;;;5048159;28;20036;-68
2024/01/01 15:40:20;;;;;;;33.80;19.67;;;;;;;;;;5048188;28;20040;-68
2024/01/01 15:43:25;;;;;;;28.73;14.65;;;;;;;;;;5047886;28;20044;-68
2024/01/01 15:46:29;;;;;;;30.20;19.45;;;;;;;;;;5048359;28;20113;-68
2024/01/01 15:49:34;;;;;;;22.25;15.25;;;;;;;;;;5048174;28;20503;-68
2024/01/01 15:52:38;;;;;;;25.55;15.98;;;;;;;;;;5048545;28;20044;-68
2024/01/01 15:55:43;;;;;;;27.08;16.77;;;;;;;;;;5048257;28;20048;-68
2024/01/01 15:58:47;;;;;;;26.48;16.67;;;;;;;;;;5095135;27;20059;-68
2024/01/01 16:01:51;;;;;;;27.45;17.10;;;;;;;;;;5095228;27;20388;-68
2024/01/01 16:04:56;;;;;;;27.02;18.05;;;;;;;;;;5047901;28;20056;-68
2024/01/01 16:07:59;;;;;;;30.17;18.83;;;;;;;;;;5095710;28;20040;-67
2024/01/01 16:11:04;;;;;;;27.35;18.88;;;;;;;;;;5047890;28;20044;-67
2024/01/01 16:14:09;;;;;;;29.67;18.88;;;;;;;;;;5047922;28;20051;-67
2024/01/01 16:17:13;;;;;;;26.90;18.30;;;;;;;;;;5047723;28;20507;-67
2024/01/01 16:20:18;;;;;;;27.40;18.10;;;14.70;99.90;;;;;;5047713;28;20392;-67
2024/01/01 16:23:22;;;;;;;29.60;18.13;;;;;;;;;;5047567;28;20055;-68
2024/01/01 16:26:26;;;;;;;31.58;21.85;;;;;;;;;;5047531;28;20511;-67
2024/01/01 16:29:33;;;;;;;34.05;21.60;;;14.50;99.90;;;;;;5094714;28;20064;-68
2024/01/01 16:32:37;;;;;;;35.83;22.10;;;;;;;;;;5047608;28;20055;-69
2024/01/01 16:35:41;;;;;;;34.80;22.25;;;;;;;;;;5047491;28;20048;-69
2024/01/01 16:38:46;;;;;;;35.72;23.05;;;;;;;;;;5047729;28;20060;-69
2024/01/01 16:41:50;;;;;;;35.25;24.25;;;;;;;;;;5047643;28;20111;-69
2024/01/01 16:44:55;;;;;;;39.80;26.13;;;;;;;;;;5047277;28;20052;-69
2024/01/01 16:48:00;;;;;;;54.53;33.08;;;;;;;;;;5045889;28;20041;-69
2024/01/01 16:51:04;;;;;;;49.72;32.33;;;;;;;;;;5046568;28;20396;-69
2024/01/01 16:54:08;;;;;;;50.25;32.75;;;;;;;;;;5046799;28;20055;-69
2024/01/01 16:57:13;;;;;;;44.88;29.90;;;;;;;;;;5050200;28;20400;-69
2024/01/01 17:00:18;;;;;;;45.50;27.58;;;;;;;;;;5050922;28;20044;-69
2024/01/01 17:03:22;;;;;;;44.92;28.67;;;;;;;;;;5050624;28;20052;-69
2024/01/01 17:06:27;;;;;;;44.42;28.23;;;;;;;;;;5050601;28;20056;-68
2024/01/01 17:09:31;;;;;;;56.20;36.38;;;;;;;;;;5050955;28;20048;-69
2024/01/01 17:12:35;;;;;;;56.15;38.55;;;;;;;;;;5050607;28;20040;-69
2024/01/01 17:15:40;;;;;;;59.88;38.28;;;;;;;;;;5050721;28;20043;-69
2024/01/01 17:18:44;;;;;;;48.08;34.08;;;;;;;;;;5050271;28;20060;-69
2024/01/01 17:21:48;;;;;;;55.78;41.60;;;;;;;;;;5050212;28;20041;-69
2024/01/01 17:24:53;;;;;;;53.30;35.60;;;;;;;;;;5050222;28;20060;-69
2024/01/01 17:27:57;;;;;;;53.88;33.47;;;;;;;;;;5050368;28;20036;-68
2024/01/01 17:31:03;;;;;;;44.65;32.72;;;;;;;;;;5050289;28;20056;-68
2024/01/01 17:34:10;;;;;;;46.40;29.30;;;;;;;;;;5050389;28;20044;-68
2024/01/01 17:37:14;;;;;;;49.28;33.17;;;;;;;;;;5050061;28;20036;-68
2024/01/01 17:40:18;;;;;;;64.78;39.78;;;;;;;;;;5050054;28;20055;-68
2024/01/01 17:43:22;;;;;;;63.30;41.30;;;;;;;;;;5050363;28;20434;-68
2024/01/01 17:46:26;;;;;;;48.13;34.47;;;;;;;;;;5050108;28;20063;-68
2024/01/01 17:49:32;;;;;;;56.45;37.08;;;15.10;99.90;;;;;;5050117;28;20380;-68